sim
Sign-in with your pilot id or email,
or register
Callsign
Passwort

Schedule Details

Flight Number: OEC80
Departure: Mumbai Chhatrapati Shivaji International Airport (VABB) at Time
Arrival: Chennai International Airport (VOMM) at Time
Route: VEVA1A EPKOS B211 ANIRO GUANI

Weather Information
Getting current METAR information for VABB 091430Z 31008KT 3000 HZ NSC 29/23 Q1013 NOSIG
Getting current METAR information for VOMM 091430Z 03005KT 5000 HZ SCT020 BKN100 27/22 Q1015 NOSIG

Schedule Frequency

Route Map